Novato, CA

1:52 AM PST on November 18, 2019 (GMT -0800)
Gnoss

Weather History for KDVO - September, 2019

Change the Weather History Date:

Saturday, September 28, 2019

  Actual Average (WUND) Record (WUND)
Temperature  
Mean Temperature 60 °F -  
Max Temperature 73 °F - - (-1)
Min Temperature 46 °F - - (-1)
Degree Days  
Heating Degree Days 6    
Growing Degree Days 10 (Base 50)    
Moisture  
Dew Point 44 °F    
Average Humidity 62    
Maximum Humidity 100    
Minimum Humidity 23    
Precipitation  
Precipitation 0.00 in - - ()
Sea Level Pressure  
Sea Level Pressure 29.76 in    
Wind  
Wind Speed 8 mph ()    
Max Wind Speed 30 mph    
Max Gust Speed 37 mph    
Visibility 10.0 miles    
Events      
Averages and records for this station are not official NWS values.
T = Trace of Precipitation, MM = Missing Value Source: Averaged Metar Reports

Daily Weather History Graph

Daily Weather History Graph

Search for Another Location

Airport or City:

Astronomy

Sep. 28, 2019 Rise Set
Actual Time 7:03 AM PDT 6:57 PM PDT
Civil Twilight 6:36 AM PDT 7:24 PM PDT
Nautical Twilight 6:06 AM PDT 7:54 PM PDT
Astronomical Twilight 5:35 AM PDT 8:25 PM PDT
Moon 6:47 AM PDT (9/28) 7:26 PM PDT (9/28)
Length of Visible Light 12h 47m
Length of Day
11h 54m
New Moon, 0% of the Moon is Illuminated
Sep 28
New Moon
Oct 5
First Quarter
Oct 13
Full
Oct 21
Last Quarter
Oct 27
New

Hourly Weather History & Observations

Time (PDT) Temp. Windchill Dew Point Humidity Pressure Visibility Wind Dir Wind Speed Gust Speed Precip Events Conditions
12:15 AM 55.4 °F - 51.8 °F 88% 29.78 in 10.0 mi Calm Calm - N/A   Overcast
12:35 AM 55.4 °F - 51.8 °F 88% 29.77 in 10.0 mi Calm Calm - N/A   Overcast
12:55 AM 55.4 °F - 51.8 °F 88% 29.76 in 10.0 mi South 5.8 mph - N/A   Overcast
1:15 AM 55.4 °F - 51.8 °F 88% 29.76 in 10.0 mi Calm Calm - N/A   Overcast
1:35 AM 55.4 °F - 51.8 °F 88% 29.77 in 10.0 mi NNW 4.6 mph - N/A   Overcast
1:55 AM 55.4 °F - 51.8 °F 88% 29.77 in 10.0 mi NNW 5.8 mph - N/A   Overcast
2:15 AM 55.4 °F - 51.8 °F 88% 29.76 in 10.0 mi NNW 4.6 mph - N/A   Overcast
2:35 AM 55.4 °F - 51.8 °F 88% 29.77 in 10.0 mi NNW 8.1 mph - N/A   Overcast
2:55 AM 53.6 °F - 51.8 °F 94% 29.76 in 10.0 mi NNW 8.1 mph - N/A   Overcast
3:15 AM 53.6 °F - 50.0 °F 88% 29.76 in 10.0 mi NNW 8.1 mph - N/A   Mostly Cloudy
3:35 AM 51.8 °F - 50.0 °F 94% 29.76 in 10.0 mi North 8.1 mph - N/A   Partly Cloudy
3:55 AM 51.8 °F - 48.2 °F 88% 29.76 in 10.0 mi NNW 8.1 mph - N/A   Clear
4:15 AM 51.8 °F - 50.0 °F 94% 29.75 in 10.0 mi NW 3.5 mph - N/A   Clear
4:35 AM 50.0 °F - 50.0 °F 100% 29.75 in 10.0 mi Calm Calm - N/A   Clear
4:55 AM 50.0 °F - 48.2 °F 94% 29.75 in 10.0 mi Calm Calm - N/A   Clear
5:15 AM 50.0 °F - 48.2 °F 94% 29.75 in 10.0 mi Calm Calm - N/A   Clear
5:35 AM 48.2 °F - 46.4 °F 93% 29.76 in 10.0 mi Calm Calm - N/A   Clear
5:55 AM 48.2 °F - 46.4 °F 93% 29.76 in 10.0 mi Calm Calm - N/A   Clear
6:15 AM 46.4 °F - 44.6 °F 93% 29.76 in 10.0 mi Calm Calm - N/A   Clear
6:35 AM 46.4 °F 45.2 °F 46.4 °F 100% 29.76 in 10.0 mi ENE 3.5 mph - N/A   Clear
6:55 AM 48.2 °F - 46.4 °F 93% 29.76 in 10.0 mi ESE 4.6 mph - N/A   Clear
7:15 AM 48.2 °F - 48.2 °F 100% 29.77 in 10.0 mi Calm Calm - N/A   Clear
7:35 AM 48.2 °F - 48.2 °F 100% 29.77 in 10.0 mi East 5.8 mph - N/A   Clear
7:55 AM 48.2 °F - 46.4 °F 93% 29.77 in 10.0 mi East 4.6 mph - N/A   Clear
8:15 AM 50.0 °F - 48.2 °F 94% 29.77 in 10.0 mi East 4.6 mph - N/A   Clear
8:35 AM 53.6 °F - 48.2 °F 82% 29.76 in 10.0 mi East 6.9 mph - N/A   Clear
8:55 AM 55.4 °F - 50.0 °F 82% 29.76 in 10.0 mi East 4.6 mph - N/A   Clear
9:15 AM 62.6 °F - 42.8 °F 48% 29.75 in 10.0 mi West 12.7 mph 18.4 mph N/A   Clear
9:35 AM 64.4 °F - 42.8 °F 45% 29.76 in 10.0 mi WNW 19.6 mph 25.3 mph N/A   Clear
9:55 AM 64.4 °F - 41.0 °F 42% 29.76 in 10.0 mi West 19.6 mph 29.9 mph N/A   Clear
10:15 AM 64.4 °F - 42.8 °F 45% 29.77 in 10.0 mi WNW 16.1 mph 21.9 mph N/A   Clear
10:35 AM 66.2 °F - 44.6 °F 46% 29.77 in 10.0 mi NW 15.0 mph 23.0 mph N/A   Clear
10:55 AM 66.2 °F - 44.6 °F 46% 29.77 in 10.0 mi WNW 11.5 mph 20.7 mph N/A   Clear
11:15 AM 68.0 °F - 39.2 °F 35% 29.76 in 10.0 mi NNW 20.7 mph 29.9 mph N/A   Clear
11:55 AM 71.6 °F - 39.2 °F 31% 29.76 in 10.0 mi NW 10.4 mph 19.6 mph N/A   Scattered Clouds
12:15 PM 73.4 °F - 37.4 °F 27% 29.76 in 10.0 mi WNW 12.7 mph 21.9 mph N/A   Partly Cloudy
12:35 PM 73.4 °F - 33.8 °F 23% 29.75 in 10.0 mi NNW 15.0 mph 20.7 mph N/A   Clear
12:55 PM 73.4 °F - 37.4 °F 27% 29.75 in 10.0 mi West 12.7 mph 21.9 mph N/A   Clear
1:15 PM 73.4 °F - 39.2 °F 29% 29.74 in 10.0 mi West 15.0 mph - N/A   Clear
1:35 PM 71.6 °F - 39.2 °F 31% 29.74 in 10.0 mi WSW 16.1 mph - N/A   Clear
1:55 PM 71.6 °F - 41.0 °F 33% 29.73 in 10.0 mi West 17.3 mph 27.6 mph N/A   Clear
2:15 PM 71.6 °F - 41.0 °F 33% 29.72 in 10.0 mi West 16.1 mph 29.9 mph N/A   Clear
2:35 PM 71.6 °F - 42.8 °F 35% 29.72 in 10.0 mi West 16.1 mph 26.5 mph N/A   Clear
2:55 PM 69.8 °F - 42.8 °F 38% 29.72 in 10.0 mi West 18.4 mph 28.8 mph N/A   Clear
3:15 PM 69.8 °F - 44.6 °F 40% 29.72 in 10.0 mi West 18.4 mph 24.2 mph N/A   Clear
3:35 PM 68.0 °F - 42.8 °F 40% 29.72 in 10.0 mi West 29.9 mph - N/A   Clear
3:55 PM 68.0 °F - 44.6 °F 43% 29.72 in 10.0 mi West 19.6 mph 29.9 mph N/A   Clear
4:15 PM 66.2 °F - 44.6 °F 46% 29.72 in 10.0 mi West 25.3 mph 32.2 mph N/A   Clear
4:55 PM 66.2 °F - 44.6 °F 46% 29.73 in 10.0 mi West 20.7 mph 34.5 mph N/A   Clear
5:15 PM 64.4 °F - 44.6 °F 49% 29.72 in 10.0 mi West 24.2 mph 36.8 mph N/A   Clear
5:35 PM 64.4 °F - 44.6 °F 49% 29.72 in 10.0 mi West 24.2 mph 33.4 mph N/A   Clear
5:55 PM 62.6 °F - 44.6 °F 52% 29.72 in 10.0 mi West 19.6 mph 33.4 mph N/A   Clear
6:15 PM 62.6 °F - 42.8 °F 48% 29.72 in 10.0 mi West 24.2 mph 31.1 mph N/A   Clear
6:35 PM 62.6 °F - 42.8 °F 48% 29.72 in 10.0 mi West 24.2 mph 36.8 mph N/A   Clear
6:55 PM 60.8 °F - 42.8 °F 52% 29.73 in 10.0 mi West 21.9 mph 33.4 mph N/A   Clear
7:15 PM 60.8 °F - 42.8 °F 52% 29.73 in 10.0 mi West 20.7 mph 34.5 mph N/A   Clear
7:35 PM 60.8 °F - 42.8 °F 52% 29.74 in 10.0 mi West 18.4 mph 28.8 mph N/A   Clear
7:55 PM 60.8 °F - 42.8 °F 52% 29.74 in 10.0 mi West 19.6 mph 32.2 mph N/A   Clear
8:15 PM 59.0 °F - 41.0 °F 51% 29.75 in 10.0 mi West 16.1 mph 31.1 mph N/A   Clear
8:35 PM 59.0 °F - 41.0 °F 51% 29.76 in 10.0 mi West 16.1 mph 21.9 mph N/A   Clear
8:55 PM 59.0 °F - 41.0 °F 51% 29.77 in 10.0 mi West 13.8 mph 23.0 mph N/A   Clear
9:15 PM 59.0 °F - 41.0 °F 51% 29.79 in 10.0 mi West 16.1 mph 24.2 mph N/A   Clear
9:35 PM 59.0 °F - 39.2 °F 48% 29.80 in 10.0 mi WNW 18.4 mph - N/A   Clear
9:55 PM 59.0 °F - 39.2 °F 48% 29.80 in 10.0 mi WNW 15.0 mph 24.2 mph N/A   Clear
10:15 PM 59.0 °F - 39.2 °F 48% 29.81 in 10.0 mi NW 15.0 mph 21.9 mph N/A   Clear
10:35 PM 57.2 °F - 39.2 °F 51% 29.81 in 10.0 mi NW 13.8 mph - N/A   Clear
10:55 PM 57.2 °F - 39.2 °F 51% 29.82 in 10.0 mi NW 12.7 mph - N/A   Clear
11:15 PM 57.2 °F - 39.2 °F 51% 29.83 in 10.0 mi NW 10.4 mph 17.3 mph N/A   Clear
11:35 PM 57.2 °F - 39.2 °F 51% 29.84 in 10.0 mi NW 10.4 mph - N/A   Clear
11:55 PM 57.2 °F - 39.2 °F 51% 29.84 in 10.0 mi NW 12.7 mph - N/A   Clear